New Hamburg, Canada
Current Conditions -  °F | °C
As of 11:00 PM on Friday 24 Oct 2014 (Local Time) from CYKF Reporting Station
Overcast Overcast  
Wind Chill: 52°   Ceiling: 3800
Heat Index: 52°   Visibility: 9mi
Dew Point: 43°   Wind: 3mph
Humidity: 71%   Direction: 180°S
Pressure: 29.93"   Gusts: NA
Location:  43.38°N, 80.72°W
Report Text: CYKF 250300Z AUTO 18003KT 9SM BKN038 OVC055 11/06 A2993 RMK SLP142
Loading
Personal Weather Stations






























Interactive Weather Map
Tropical Storm Tracking
New forecast layout! Learn more

10-Day Weather Forecast

Advertisements
Track Severe Weather on mobile